Time;durP1;ratioP1;P1;durP2;ratioP2;P2;SDS_P1;SDS_P2;PMS_P1;PMS_P2;Temp;Humidity;BMP_temperature;BMP_pressure;BME280_temperature;BME280_humidity;BME280_pressure;Samples;Min_cycle;Max_cycle;Signal;HPM_P1;HPM_P2
2022/05/01 00:02:09;;;;;;;16.13;9.68;;;26.50;99.90;;;;;;5047878;28;20057;-61
2022/05/01 00:04:36;;;;;;;17.95;11.50;;;26.50;99.90;;;;;;5053719;28;20029;-61
2022/05/01 00:07:04;;;;;;;19.98;13.18;;;26.50;99.90;;;;;;5053918;28;20317;-65
2022/05/01 00:09:30;;;;;;;19.75;13.65;;;26.50;99.90;;;;;;5053118;28;20075;-61
2022/05/01 00:11:57;;;;;;;17.40;13.15;;;26.50;99.90;;;;;;5053944;28;20393;-61
2022/05/01 00:14:24;;;;;;;18.13;12.27;;;26.60;99.90;;;;;;5049593;28;20433;-60
2022/05/01 00:16:50;;;;;;;15.00;11.23;;;26.50;99.90;;;;;;5042151;28;20165;-62
2022/05/01 00:19:17;;;;;;;13.23;9.35;;;26.50;99.90;;;;;;5033381;28;20037;-62
2022/05/01 00:21:45;;;;;;;15.57;12.05;;;26.50;99.90;;;;;;5033616;28;20036;-65
2022/05/01 00:24:11;;;;;;;13.25;10.20;;;26.50;99.90;;;;;;5033585;28;20030;-64
2022/05/01 00:26:38;;;;;;;16.83;10.50;;;26.60;99.90;;;;;;5049088;28;20114;-63
2022/05/01 00:29:06;;;;;;;21.50;11.73;;;26.60;99.90;;;;;;5055138;28;20060;-60
2022/05/01 00:31:33;;;;;;;17.77;12.55;;;26.60;99.90;;;;;;5055979;28;20385;-64
2022/05/01 00:36:30;;;;;;;20.15;12.30;;;26.80;99.90;;;;;;5056551;28;20047;-64
2022/05/01 00:39:01;;;;;;;15.55;11.68;;;26.90;99.90;;;;;;5057423;28;20029;-63
2022/05/01 00:41:30;;;;;;;14.20;11.30;;;27.00;99.90;;;;;;5056637;28;20116;-66
2022/05/01 00:43:58;;;;;;;14.77;9.73;;;27.20;99.90;;;;;;5057325;28;20048;-62
2022/05/01 00:46:26;;;;;;;14.80;10.43;;;27.20;99.90;;;;;;5056488;28;20434;-62
2022/05/01 00:48:53;;;;;;;18.45;12.55;;;27.20;99.90;;;;;;5057241;28;20067;-62
2022/05/01 00:51:20;;;;;;;17.05;12.75;;;27.30;99.90;;;;;;5055521;28;20020;-63
2022/05/01 00:53:52;;;;;;;17.83;12.60;;;27.50;99.90;;;;;;5056935;28;20532;-62
2022/05/01 00:56:19;;;;;;;15.65;12.48;;;27.50;99.90;;;;;;5056188;28;20032;-62
2022/05/01 00:58:47;;;;;;;16.88;12.05;;;27.50;99.90;;;;;;5054834;28;20029;-62
2022/05/01 01:01:15;;;;;;;14.27;10.88;;;27.50;99.90;;;;;;5054649;28;20393;-63
2022/05/01 01:03:42;;;;;;;16.80;10.90;;;27.60;99.90;;;;;;5056638;28;20413;-62
2022/05/01 01:06:09;;;;;;;14.00;8.98;;;27.60;99.90;;;;;;5056908;28;20037;-61
2022/05/01 01:08:35;;;;;;;12.38;9.18;;;27.70;99.90;;;;;;5056842;28;20029;-63
2022/05/01 01:11:02;;;;;;;17.33;10.52;;;27.80;99.90;;;;;;5056469;28;20474;-61
2022/05/01 01:13:30;;;;;;;13.13;9.65;;;27.80;99.90;;;;;;5055922;28;20390;-61
2022/05/01 01:15:57;;;;;;;16.15;9.68;;;27.80;99.90;;;;;;5053633;28;20113;-61
2022/05/01 01:18:26;;;;;;;14.63;10.75;;;27.90;99.90;;;;;;5055659;28;20032;-64
2022/05/01 01:20:53;;;;;;;15.85;12.00;;;28.10;99.90;;;;;;5049492;28;20104;-62
2022/05/01 01:23:22;;;;;;;21.23;13.05;;;28.10;99.90;;;;;;5046193;28;20037;-61
2022/05/01 01:25:49;;;;;;;14.27;10.32;;;28.20;99.90;;;;;;5044977;28;20033;-62
2022/05/01 01:28:18;;;;;;;14.68;8.77;;;28.30;99.90;;;;;;5048596;28;20075;-63
2022/05/01 01:33:15;;;;;;;16.10;8.00;;;28.40;99.90;;;;;;5045727;28;20017;-62
2022/05/01 01:35:44;;;;;;;16.10;9.52;;;28.60;99.90;;;;;;5044898;28;20032;-63
2022/05/01 01:38:10;;;;;;;14.70;9.65;;;28.60;99.90;;;;;;5046351;28;20108;-62
2022/05/01 01:40:54;;;;;;;13.25;10.80;;;28.60;99.90;;;;;;5044037;28;20544;-62
2022/05/01 01:43:29;;;;;;;21.27;11.13;;;28.70;99.90;;;;;;5042943;28;20068;-62
2022/05/01 01:45:56;;;;;;;16.10;9.98;;;28.70;99.90;;;;;;5044013;28;20425;-62
2022/05/01 01:48:24;;;;;;;17.77;10.13;;;28.80;99.90;;;;;;5046173;28;20029;-64
2022/05/01 01:50:56;;;;;;;15.15;10.88;;;28.90;99.90;;;;;;5045814;28;20122;-65
2022/05/01 01:53:23;;;;;;;15.70;11.32;;;29.00;99.90;;;;;;5043866;28;20100;-64
2022/05/01 01:55:49;;;;;;;17.48;12.27;;;29.10;99.90;;;;;;5044136;28;20523;-61
2022/05/01 01:58:16;;;;;;;23.48;15.52;;;29.10;99.90;;;;;;5045991;28;20021;-63
2022/05/01 02:00:43;;;;;;;23.20;14.85;;;29.10;99.90;;;;;;5045692;28;20030;-62
2022/05/01 02:03:09;;;;;;;18.42;13.73;;;29.20;99.90;;;;;;5044709;28;20208;-62
2022/05/01 02:05:36;;;;;;;11.02;8.30;;;29.30;99.90;;;;;;5043283;28;20044;-63
2022/05/01 02:08:06;;;;;;;14.98;8.70;;;29.30;99.90;;;;;;5045011;28;20100;-63
2022/05/01 02:10:32;;;;;;;13.77;7.22;;;29.30;99.90;;;;;;5045073;28;20033;-62
2022/05/01 02:13:00;;;;;;;12.57;8.25;;;29.20;99.90;;;;;;5045290;28;20057;-63
2022/05/01 02:15:30;;;;;;;11.43;7.50;;;29.20;99.90;;;;;;5046096;28;20022;-63
2022/05/01 02:17:59;;;;;;;10.60;7.07;;;29.10;99.90;;;;;;5043411;28;20114;-66
2022/05/01 02:20:27;;;;;;;12.68;8.20;;;29.20;99.90;;;;;;5046930;28;20057;-66
2022/05/01 02:22:54;;;;;;;11.82;7.65;;;29.20;99.90;;;;;;5051041;28;20111;-66
2022/05/01 02:25:22;;;;;;;10.32;7.07;;;29.30;99.90;;;;;;5049690;28;20170;-66
2022/05/01 02:27:48;;;;;;;10.20;6.32;;;29.20;99.90;;;;;;5046078;28;20551;-66
2022/05/01 02:30:16;;;;;;;12.75;6.70;;;29.30;99.90;;;;;;5043530;28;20428;-66
2022/05/01 02:32:43;;;;;;;11.23;6.30;;;29.40;99.90;;;;;;5044754;28;20021;-65
2022/05/01 02:35:10;;;;;;;8.63;5.95;;;29.60;99.90;;;;;;5045982;28;20031;-65
2022/05/01 02:37:37;;;;;;;10.45;6.53;;;29.70;99.90;;;;;;5045648;28;20025;-67
2022/05/01 02:40:04;;;;;;;15.95;8.23;;;29.70;99.90;;;;;;5044988;28;20029;-62
2022/05/01 02:42:31;;;;;;;18.08;11.68;;;29.70;99.90;;;;;;5049329;28;20020;-65
2022/05/01 02:44:59;;;;;;;14.48;8.10;;;29.60;99.90;;;;;;5054445;28;20102;-66
2022/05/01 02:47:26;;;;;;;12.15;8.20;;;29.60;99.90;;;;;;5055178;28;20363;-65
2022/05/01 02:49:52;;;;;;;11.45;8.23;;;29.70;99.90;;;;;;5054946;28;20028;-65
2022/05/01 02:52:20;;;;;;;9.18;6.47;;;29.80;99.90;;;;;;5055043;28;20033;-64
2022/05/01 02:54:47;;;;;;;11.30;7.72;;;29.90;99.90;;;;;;5050745;28;20110;-63
2022/05/01 02:57:13;;;;;;;13.00;8.20;;;29.80;99.90;;;;;;5043282;28;20166;-64
2022/05/01 02:59:40;;;;;;;10.50;6.25;;;29.80;99.90;;;;;;5045337;28;20577;-64
2022/05/01 03:02:07;;;;;;;12.75;8.45;;;29.70;99.90;;;;;;5044225;28;20045;-63
2022/05/01 03:04:35;;;;;;;10.35;7.50;;;29.80;99.90;;;;;;5043338;28;20051;-64
2022/05/01 03:07:04;;;;;;;8.43;5.93;;;29.90;99.90;;;;;;5040722;28;20021;-65
2022/05/01 03:09:31;;;;;;;9.63;6.90;;;29.80;99.90;;;;;;5044209;28;20037;-63
2022/05/01 03:11:57;;;;;;;8.35;5.40;;;29.90;99.90;;;;;;5042793;28;20037;-64
2022/05/01 03:14:24;;;;;;;10.23;6.20;;;29.90;99.90;;;;;;5044376;28;20359;-64
2022/05/01 03:16:51;;;;;;;16.20;9.40;;;30.00;99.90;;;;;;5045119;28;20469;-63
2022/05/01 03:24:35;;;;;;;9.25;6.13;;;30.10;99.90;;;;;;5042071;28;20513;-66
2022/05/01 03:27:02;;;;;;;9.35;6.88;;;30.00;99.90;;;;;;5043285;28;20032;-64
2022/05/01 03:29:29;;;;;;;11.45;6.70;;;30.10;99.90;;;;;;5045567;28;20025;-64
2022/05/01 03:31:56;;;;;;;11.20;7.35;;;30.10;99.90;;;;;;5044035;28;20092;-63
2022/05/01 03:34:26;;;;;;;9.73;6.70;;;30.20;99.90;;;;;;5043783;28;20036;-65
2022/05/01 03:36:54;;;;;;;7.28;6.13;;;30.30;99.90;;;;;;5041857;28;20013;-65
2022/05/01 03:39:21;;;;;;;13.75;6.40;;;30.30;99.90;;;;;;5044003;28;20025;-65
2022/05/01 03:41:48;;;;;;;13.90;8.43;;;30.30;99.90;;;;;;5042337;28;20394;-64
2022/05/01 03:44:14;;;;;;;12.38;7.63;;;30.30;99.90;;;;;;5042269;28;20052;-65
2022/05/01 03:46:41;;;;;;;16.05;9.52;;;30.40;99.90;;;;;;5043080;28;20029;-66
2022/05/01 03:49:09;;;;;;;16.95;7.95;;;30.50;99.90;;;;;;5046122;28;20033;-63
2022/05/01 03:51:36;;;;;;;7.00;5.60;;;30.60;99.90;;;;;;5042862;28;20032;-66
2022/05/01 03:54:05;;;;;;;10.60;5.55;;;30.70;99.90;;;;;;5047374;28;20031;-66
2022/05/01 03:56:34;;;;;;;6.30;4.50;;;30.80;99.90;;;;;;5041613;28;20021;-66
2022/05/01 03:59:04;;;;;;;8.88;5.30;;;30.80;99.90;;;;;;5042798;28;20025;-67
2022/05/01 04:01:33;;;;;;;10.88;5.60;;;30.80;99.90;;;;;;5041129;28;20070;-66
2022/05/01 04:04:00;;;;;;;6.55;5.53;;;30.90;99.90;;;;;;5002755;28;20046;-64
2022/05/01 04:06:27;;;;;;;5.95;3.47;;;31.00;99.90;;;;;;5004807;28;20041;-66
2022/05/01 04:08:53;;;;;;;10.70;5.10;;;31.00;99.90;;;;;;5009345;28;20030;-66
2022/05/01 04:11:20;;;;;;;11.68;5.47;;;31.00;99.90;;;;;;5005247;28;20145;-66
2022/05/01 04:13:48;;;;;;;14.00;7.72;;;31.10;99.90;;;;;;5003903;28;20052;-65
2022/05/01 04:16:15;;;;;;;11.82;5.00;;;31.10;99.90;;;;;;5004438;28;20034;-66
2022/05/01 04:18:42;;;;;;;8.70;6.25;;;31.10;99.90;;;;;;5003085;28;20026;-66
2022/05/01 04:21:10;;;;;;;7.40;6.13;;;31.10;99.90;;;;;;5002975;28;20537;-65
2022/05/01 04:23:38;;;;;;;11.73;7.43;;;31.20;99.90;;;;;;5003464;28;20037;-64
2022/05/01 04:26:05;;;;;;;10.10;6.88;;;31.20;99.90;;;;;;5002833;28;20049;-65
2022/05/01 04:28:31;;;;;;;11.27;6.38;;;31.30;99.90;;;;;;5003424;28;20029;-64
2022/05/01 04:30:58;;;;;;;11.75;6.50;;;31.30;99.90;;;;;;5003240;28;20034;-65
2022/05/01 04:33:25;;;;;;;12.82;7.18;;;31.50;99.90;;;;;;5002742;28;20025;-65
2022/05/01 04:35:52;;;;;;;7.13;5.68;;;31.50;99.90;;;;;;5004439;28;20127;-63
2022/05/01 04:38:23;;;;;;;9.27;6.18;;;31.50;99.90;;;;;;5004430;28;20021;-65
2022/05/01 04:40:52;;;;;;;9.82;7.20;;;31.50;99.90;;;;;;5001106;28;20443;-64
2022/05/01 04:43:22;;;;;;;16.92;6.38;;;31.50;99.90;;;;;;5001245;28;20054;-66
2022/05/01 04:45:50;;;;;;;6.80;5.35;;;31.60;99.90;;;;;;5001449;28;20061;-66
2022/05/01 04:48:19;;;;;;;13.18;7.18;;;31.60;99.90;;;;;;4993991;28;20484;-65
2022/05/01 04:50:47;;;;;;;8.90;8.00;;;31.60;99.90;;;;;;4993860;28;20109;-68
2022/05/01 04:53:15;;;;;;;11.15;7.00;;;31.60;99.90;;;;;;5011219;28;20022;-65
2022/05/01 04:55:44;;;;;;;8.68;5.88;;;31.70;99.90;;;;;;5007949;28;20037;-67
2022/05/01 04:58:14;;;;;;;7.82;6.07;;;31.70;99.90;;;;;;5004258;28;20475;-64
2022/05/01 05:00:42;;;;;;;10.70;5.95;;;31.80;99.90;;;;;;5010925;28;20045;-68
2022/05/01 05:03:09;;;;;;;10.85;6.38;;;31.80;99.90;;;;;;5037614;28;20136;-66
2022/05/01 05:05:36;;;;;;;8.77;5.68;;;31.80;99.90;;;;;;5049877;28;20033;-66
2022/05/01 05:10:42;;;;;;;9.60;5.68;;;31.90;99.90;;;;;;5047700;28;20099;-66
2022/05/01 05:13:09;;;;;;;7.18;4.68;;;31.90;99.90;;;;;;5033642;28;20021;-67
2022/05/01 05:15:35;;;;;;;5.95;4.28;;;31.90;99.90;;;;;;5041322;28;20020;-66
2022/05/01 05:18:02;;;;;;;5.55;4.38;;;31.90;99.90;;;;;;5054954;28;20043;-65
2022/05/01 05:20:29;;;;;;;6.60;4.25;;;31.90;99.90;;;;;;5030368;28;20442;-64
2022/05/01 05:22:55;;;;;;;13.05;4.80;;;32.00;99.90;;;;;;5044666;28;20022;-62
2022/05/01 05:25:22;;;;;;;7.63;4.15;;;31.90;99.90;;;;;;5045314;28;20469;-64
2022/05/01 05:27:49;;;;;;;9.95;5.55;;;32.00;99.90;;;;;;5045383;28;20026;-65
2022/05/01 05:30:15;;;;;;;7.30;3.92;;;32.00;99.90;;;;;;5048991;28;20021;-62
2022/05/01 05:32:42;;;;;;;6.45;4.63;;;32.20;99.90;;;;;;5050740;28;20022;-64
2022/05/01 05:35:09;;;;;;;4.88;3.67;;;32.20;99.90;;;;;;5046391;28;20029;-62
2022/05/01 05:37:36;;;;;;;5.70;4.10;;;32.10;99.90;;;;;;5046913;28;20100;-64
2022/05/01 05:40:04;;;;;;;7.00;4.40;;;32.00;99.90;;;;;;5044938;28;20485;-62
2022/05/01 05:42:30;;;;;;;7.28;4.30;;;32.00;99.90;;;;;;5046380;28;20312;-63
2022/05/01 05:44:57;;;;;;;5.45;3.90;;;32.10;99.90;;;;;;5047808;28;20025;-61
2022/05/01 05:47:24;;;;;;;4.90;3.92;;;32.10;99.90;;;;;;5053531;28;20017;-65
2022/05/01 05:49:50;;;;;;;8.98;3.83;;;32.20;99.90;;;;;;5045040;28;20045;-59
2022/05/01 05:52:17;;;;;;;7.68;4.32;;;32.10;99.90;;;;;;5047119;28;20021;-62
2022/05/01 05:54:44;;;;;;;8.18;4.80;;;32.20;99.90;;;;;;5046880;28;20025;-62
2022/05/01 05:57:11;;;;;;;6.78;4.72;;;32.20;99.90;;;;;;5056067;28;20032;-61
2022/05/01 05:59:37;;;;;;;8.50;4.57;;;32.30;99.90;;;;;;5054719;28;20385;-61
2022/05/01 06:02:04;;;;;;;6.03;4.05;;;32.30;99.90;;;;;;5055839;28;20116;-62
2022/05/01 06:04:31;;;;;;;11.50;5.20;;;32.40;99.90;;;;;;5056060;28;20080;-61
2022/05/01 06:06:57;;;;;;;8.73;4.35;;;32.50;99.90;;;;;;5052807;28;20028;-61
2022/05/01 06:09:24;;;;;;;8.50;4.20;;;32.50;99.90;;;;;;5056317;28;20061;-61
2022/05/01 06:11:51;;;;;;;6.05;3.83;;;32.50;99.10;;;;;;5056072;28;20041;-60
2022/05/01 06:14:17;;;;;;;7.22;3.83;;;32.50;99.50;;;;;;5052217;28;21724;-64
2022/05/01 06:16:44;;;;;;;5.40;3.40;;;32.60;98.90;;;;;;5045995;28;20028;-62
2022/05/01 06:19:11;;;;;;;6.45;3.47;;;32.70;98.60;;;;;;5054857;28;20082;-64
2022/05/01 06:21:37;;;;;;;6.18;3.35;;;32.70;98.20;;;;;;5055126;28;20067;-69
2022/05/01 06:24:04;;;;;;;13.63;4.80;;;32.70;97.90;;;;;;5053782;28;20033;-71
2022/05/01 06:26:31;;;;;;;7.00;4.18;;;32.80;98.40;;;;;;5055206;28;20042;-70
2022/05/01 06:28:59;;;;;;;9.55;4.00;;;32.90;99.40;;;;;;5055456;28;20025;-69
2022/05/01 06:31:26;;;;;;;5.57;3.45;;;32.90;98.20;;;;;;5055003;28;20485;-70
2022/05/01 06:33:54;;;;;;;5.45;3.40;;;33.00;98.10;;;;;;5055370;28;20079;-69
2022/05/01 06:36:20;;;;;;;5.18;3.38;;;33.10;97.20;;;;;;5052823;28;20189;-73
2022/05/01 06:38:47;;;;;;;5.45;3.70;;;33.10;97.80;;;;;;5050334;28;20083;-68
2022/05/01 06:41:15;;;;;;;8.07;3.30;;;33.10;96.60;;;;;;5035246;28;20052;-68
2022/05/01 06:43:42;;;;;;;6.45;4.07;;;33.10;95.70;;;;;;5048380;28;20055;-68
2022/05/01 06:46:09;;;;;;;11.57;4.43;;;33.10;95.70;;;;;;5049024;28;20167;-67
2022/05/01 06:48:35;;;;;;;11.35;5.28;;;33.10;95.70;;;;;;5046266;28;20116;-67
2022/05/01 06:51:02;;;;;;;10.00;5.20;;;33.10;96.20;;;;;;5054764;28;20430;-67
2022/05/01 06:53:29;;;;;;;6.80;3.67;;;33.10;95.40;;;;;;5069129;22;20057;-68
2022/05/01 06:55:56;;;;;;;6.38;4.10;;;33.00;95.10;;;;;;5071788;28;20032;-68
2022/05/01 06:58:24;;;;;;;11.00;4.95;;;33.10;96.40;;;;;;5074858;28;20437;-69
2022/05/01 07:00:52;;;;;;;9.13;4.05;;;33.10;95.30;;;;;;5074919;28;20056;-68
2022/05/01 07:03:20;;;;;;;10.52;4.25;;;33.20;95.80;;;;;;5074745;28;20027;-68
2022/05/01 07:05:48;;;;;;;6.53;4.25;;;33.20;95.50;;;;;;5069532;28;20496;-68
2022/05/01 07:08:14;;;;;;;6.95;4.03;;;33.30;95.30;;;;;;5056144;28;20021;-68
2022/05/01 07:10:42;;;;;;;7.28;4.38;;;33.20;95.20;;;;;;5072203;28;20036;-67
2022/05/01 07:13:10;;;;;;;11.98;5.88;;;33.10;96.10;;;;;;5090741;28;20099;-68
2022/05/01 07:15:37;;;;;;;7.72;5.10;;;33.30;95.80;;;;;;5082976;28;20029;-66
2022/05/01 07:18:05;;;;;;;8.77;6.15;;;33.40;95.70;;;;;;5063445;28;20029;-65
2022/05/01 07:20:35;;;;;;;24.38;5.93;;;33.40;95.70;;;;;;5071635;28;20515;-67
2022/05/01 07:23:03;;;;;;;13.10;4.78;;;33.50;95.50;;;;;;5074419;28;20036;-66
2022/05/01 07:25:30;;;;;;;25.90;7.43;;;33.40;94.50;;;;;;5073983;28;20020;-71
2022/05/01 07:27:56;;;;;;;17.08;5.75;;;33.40;94.70;;;;;;5074810;28;20047;-69
2022/05/01 07:30:23;;;;;;;9.27;4.55;;;33.50;95.00;;;;;;5067713;28;20114;-68
2022/05/01 07:32:50;;;;;;;8.40;4.72;;;33.40;94.50;;;;;;5054472;28;20025;-67
2022/05/01 07:35:17;;;;;;;7.18;4.32;;;33.40;94.50;;;;;;5059070;28;20040;-68
2022/05/01 07:37:43;;;;;;;6.53;3.75;;;33.40;94.10;;;;;;5063162;28;20035;-69
2022/05/01 07:40:11;;;;;;;8.32;4.45;;;33.40;94.00;;;;;;5072855;28;20078;-68
2022/05/01 07:42:38;;;;;;;14.63;7.28;;;33.50;95.10;;;;;;5071700;28;20477;-66
2022/05/01 07:45:05;;;;;;;9.88;6.25;;;33.50;95.00;;;;;;5071236;28;20037;-67
2022/05/01 07:47:32;;;;;;;10.85;7.30;;;33.50;94.80;;;;;;5064812;28;20086;-67
2022/05/01 07:49:58;;;;;;;14.70;5.85;;;33.50;94.20;;;;;;5080876;28;20683;-67
2022/05/01 07:52:25;;;;;;;11.68;5.90;;;33.50;94.80;;;;;;5061920;28;20037;-67
2022/05/01 07:54:52;;;;;;;9.75;5.40;;;33.40;94.50;;;;;;5065163;28;20029;-67
2022/05/01 07:57:20;;;;;;;12.05;6.57;;;33.40;94.40;;;;;;5068872;28;20016;-69
2022/05/01 07:59:47;;;;;;;20.75;7.65;;;33.50;94.60;;;;;;5068642;28;20065;-66
2022/05/01 08:02:14;;;;;;;14.00;7.50;;;33.60;95.10;;;;;;5064061;28;20021;-66
2022/05/01 08:04:40;;;;;;;11.60;6.43;;;33.60;93.50;;;;;;5059258;28;20028;-67
2022/05/01 08:07:08;;;;;;;5.97;4.07;;;33.60;94.80;;;;;;5061271;28;20033;-66
2022/05/01 08:09:35;;;;;;;7.18;4.30;;;33.50;94.30;;;;;;5073262;28;20056;-65
2022/05/01 08:12:02;;;;;;;7.45;5.05;;;33.60;94.30;;;;;;5075902;28;20032;-64
2022/05/01 08:14:28;;;;;;;10.13;6.10;;;33.70;93.90;;;;;;5072407;28;20025;-66
2022/05/01 08:16:55;;;;;;;10.05;4.93;;;33.70;93.20;;;;;;5071352;28;20116;-66
2022/05/01 08:22:01;;;;;;;8.10;5.57;;;33.60;93.10;;;;;;5072644;28;20109;-66
2022/05/01 08:24:28;;;;;;;7.53;5.25;;;33.80;93.40;;;;;;5069647;28;20032;-66
2022/05/01 08:26:54;;;;;;;8.93;5.43;;;33.70;92.80;;;;;;5071645;28;20024;-64
2022/05/01 08:29:21;;;;;;;6.35;4.38;;;33.60;92.60;;;;;;5072668;28;20021;-63
2022/05/01 08:31:48;;;;;;;9.40;5.60;;;33.30;92.50;;;;;;5071754;28;20028;-65
2022/05/01 08:34:16;;;;;;;6.45;4.22;;;33.30;93.60;;;;;;5066789;28;20032;-70
2022/05/01 08:36:45;;;;;;;8.63;4.15;;;33.40;93.00;;;;;;5053607;28;20052;-65
2022/05/01 08:39:12;;;;;;;6.35;4.30;;;33.40;93.10;;;;;;5053422;28;20492;-65
2022/05/01 08:41:38;;;;;;;9.35;5.35;;;33.50;93.50;;;;;;5056239;28;20120;-65
2022/05/01 08:44:05;;;;;;;15.00;6.30;;;33.50;93.50;;;;;;5070625;28;20024;-64
2022/05/01 08:46:52;;;;;;;8.90;5.35;;;33.60;94.00;;;;;;5073488;28;20029;-65
2022/05/01 08:49:20;;;;;;;13.90;6.05;;;33.60;93.40;;;;;;5073385;28;20043;-66
2022/05/01 08:51:47;;;;;;;7.55;4.50;;;33.70;92.80;;;;;;5077558;28;20029;-63
2022/05/01 08:54:16;;;;;;;12.30;5.50;;;33.60;92.20;;;;;;5062887;28;20097;-63
2022/05/01 08:56:44;;;;;;;6.47;5.03;;;33.60;92.90;;;;;;5077338;28;20021;-62
2022/05/01 08:59:14;;;;;;;11.23;5.53;;;33.60;92.60;;;;;;5077502;28;20060;-62
2022/05/01 09:01:42;;;;;;;15.00;5.80;;;33.60;93.00;;;;;;5077077;28;20536;-65
2022/05/01 09:04:12;;;;;;;10.27;5.53;;;33.60;92.40;;;;;;5067805;28;20162;-65
2022/05/01 09:06:41;;;;;;;7.53;4.95;;;33.70;92.60;;;;;;5076843;28;20056;-60
2022/05/01 09:09:11;;;;;;;9.60;5.50;;;33.60;92.30;;;;;;5077150;28;20025;-62
2022/05/01 09:14:17;;;;;;;9.02;7.45;;;33.70;92.30;;;;;;5076127;28;20024;-61
2022/05/01 09:17:11;;;;;;;7.18;6.30;;;33.70;92.40;;;;;;5076776;28;20086;-61
2022/05/01 09:19:38;;;;;;;13.30;9.48;;;33.70;92.60;;;;;;5071188;28;20481;-59
2022/05/01 09:22:04;;;;;;;13.80;10.18;;;33.70;92.90;;;;;;5061145;28;20033;-58
2022/05/01 09:24:32;;;;;;;13.15;8.50;;;33.80;92.20;;;;;;5073190;28;20496;-67
2022/05/01 09:27:00;;;;;;;8.60;6.60;;;33.80;92.20;;;;;;5074996;28;20051;-67
2022/05/01 09:29:32;;;;;;;18.23;11.55;;;33.80;92.30;;;;;;5074054;28;20346;-64
2022/05/01 09:32:03;;;;;;;11.95;6.53;;;33.80;91.90;;;;;;5076558;28;20388;-65
2022/05/01 09:34:35;;;;;;;9.88;4.70;;;33.80;91.20;;;;;;5070020;28;20100;-67
2022/05/01 09:37:18;;;;;;;9.63;6.07;;;33.70;90.80;;;;;;5069114;28;20021;-65
2022/05/01 09:39:50;;;;;;;9.38;4.78;;;33.60;90.50;;;;;;5076457;28;20111;-65
2022/05/01 09:42:19;;;;;;;13.20;5.35;;;33.60;91.10;;;;;;5075391;28;20426;-65
2022/05/01 09:45:11;;;;;;;11.75;6.72;;;33.60;91.70;;;;;;5076197;28;20021;-66
2022/05/01 09:47:41;;;;;;;;;;;33.60;91.10;;;;;;5076642;28;20469;-64
2022/05/01 09:50:09;;;;;;;20.00;12.23;;;33.60;90.90;;;;;;5075736;28;20280;-64
2022/05/01 09:52:58;;;;;;;14.32;6.85;;;33.60;91.80;;;;;;5074703;28;20209;-66
2022/05/01 09:55:26;;;;;;;12.98;7.55;;;33.60;91.00;;;;;;5056298;28;20029;-65
2022/05/01 09:58:09;;;;;;;13.63;5.35;;;33.50;90.50;;;;;;5056604;28;20032;-64
2022/05/01 10:00:47;;;;;;;9.30;5.30;;;33.40;90.10;;;;;;5074715;28;20032;-66
2022/05/01 10:03:22;;;;;;;16.95;5.85;;;33.30;90.70;;;;;;5073445;28;20029;-68
2022/05/01 10:05:50;;;;;;;19.60;7.68;;;33.30;91.40;;;;;;5075033;28;20035;-64
2022/05/01 10:08:20;;;;;;;15.07;5.60;;;33.30;91.00;;;;;;5075416;28;20025;-63
2022/05/01 10:10:49;;;;;;;9.63;6.10;;;33.30;90.50;;;;;;5075259;28;20524;-64
2022/05/01 10:13:16;;;;;;;12.27;5.88;;;33.20;89.90;;;;;;5069041;28;20061;-63
2022/05/01 10:15:43;;;;;;;18.17;10.85;;;33.20;90.30;;;;;;5073750;28;20029;-63
2022/05/01 10:18:11;;;;;;;26.52;14.93;;;33.20;90.90;;;;;;5074260;28;20025;-63
2022/05/01 10:20:41;;;;;;;21.02;10.98;;;33.20;90.70;;;;;;5075117;28;20032;-65
2022/05/01 10:23:08;;;;;;;21.95;11.05;;;33.30;90.90;;;;;;5074902;28;20044;-65
2022/05/01 10:25:39;;;;;;;14.35;9.43;;;33.30;90.70;;;;;;5074835;28;20107;-65
2022/05/01 10:28:23;;;;;;;19.05;9.35;;;33.20;91.10;;;;;;5065528;28;20031;-66
2022/05/01 10:34:09;;;;;;;35.88;20.25;;;33.10;91.50;;;;;;5055226;28;20021;-62
2022/05/01 10:36:57;;;;;;;30.00;16.52;;;33.10;91.90;;;;;;5067226;28;20116;-60
2022/05/01 10:39:29;;;;;;;19.13;10.80;;;33.10;92.60;;;;;;5073287;28;20029;-62
2022/05/01 10:41:56;;;;;;;;;;;33.10;91.80;;;;;;5075149;28;20029;-64
2022/05/01 10:44:30;;;;;;;33.35;18.63;;;33.00;91.90;;;;;;5075374;28;19950;-62
2022/05/01 10:47:12;;;;;;;26.13;16.50;;;33.00;92.20;;;;;;5074215;28;20060;-64
2022/05/01 10:49:47;;;;;;;26.63;14.98;;;33.00;91.80;;;;;;5055378;28;20473;-62
2022/05/01 10:52:21;;;;;;;21.45;12.40;;;32.90;92.20;;;;;;5054927;28;20473;-64
2022/05/01 10:54:52;;;;;;;29.27;16.35;;;32.90;92.20;;;;;;5055361;28;20024;-60
2022/05/01 10:57:19;;;;;;;25.20;16.80;;;32.80;92.20;;;;;;5070539;28;20016;-61
2022/05/01 10:59:48;;;;;;;31.38;18.13;;;32.80;92.30;;;;;;5072683;28;20066;-61
2022/05/01 11:02:18;;;;;;;28.40;16.60;;;32.80;92.40;;;;;;5073075;28;20062;-61
2022/05/01 11:04:44;;;;;;;32.70;19.10;;;32.80;93.00;;;;;;5076311;28;20110;-64
2022/05/01 11:07:13;;;;;;;27.20;16.92;;;32.70;92.30;;;;;;5074804;28;20496;-63
2022/05/01 11:09:45;;;;;;;25.55;14.18;;;32.70;92.50;;;;;;5073739;28;20123;-63
2022/05/01 11:12:13;;;;;;;;;;;32.70;92.90;;;;;;5075166;28;20028;-61
2022/05/01 11:14:54;;;;;;;98.35;67.50;;;32.70;92.90;;;;;;5074756;28;19927;-64
2022/05/01 11:20:21;;;;;;;36.17;24.15;;;32.70;93.10;;;;;;5071745;28;20485;-62
2022/05/01 11:22:48;;;;;;;31.77;22.00;;;32.70;93.20;;;;;;5073919;28;20082;-61
2022/05/01 11:25:31;;;;;;;30.35;19.10;;;32.70;93.30;;;;;;5074313;28;20050;-60
2022/05/01 11:27:58;;;;;;;26.42;17.90;;;32.70;93.40;;;;;;5068876;28;20081;-61
2022/05/01 11:30:29;;;;;;;30.90;17.63;;;32.70;93.60;;;;;;5072221;28;20431;-60
2022/05/01 11:33:08;;;;;;;26.58;15.27;;;32.70;93.60;;;;;;5074347;28;20029;-63
2022/05/01 11:35:58;;;;;;;29.40;17.63;;;32.70;93.50;;;;;;5062527;28;20033;-61
2022/05/01 11:38:32;;;;;;;45.25;31.92;;;32.60;93.50;;;;;;5071903;28;21194;-62
2022/05/01 11:41:01;;;;;;;82.75;60.22;;;32.60;93.60;;;;;;5071692;28;20025;-61
2022/05/01 11:43:29;;;;;;;121.15;96.88;;;32.60;93.10;;;;;;5063609;28;20021;-61
2022/05/01 11:45:59;;;;;;;95.57;68.85;;;32.50;93.00;;;;;;5072727;28;20020;-62
2022/05/01 11:48:26;;;;;;;45.08;26.20;;;32.40;93.40;;;;;;5072700;28;20477;-63
2022/05/01 11:50:54;;;;;;;37.88;27.35;;;32.20;93.30;;;;;;5069717;28;20044;-63
2022/05/01 11:53:24;;;;;;;18.60;10.93;;;32.10;93.80;;;;;;5065188;28;20111;-63
2022/05/01 12:03:50;;;;;;;170.05;138.57;;;31.80;95.00;;;;;;5072697;28;20035;-66
2022/05/01 12:06:25;;;;;;;46.38;33.63;;;31.80;95.30;;;;;;5072667;28;20044;-63
2022/05/01 12:08:52;;;;;;;107.90;77.72;;;31.70;95.60;;;;;;5071457;28;20064;-63
2022/05/01 12:11:26;;;;;;;175.57;135.93;;;31.70;96.10;;;;;;5080233;28;20384;-64
2022/05/01 12:14:01;;;;;;;208.27;146.18;;;31.80;96.00;;;;;;5070315;28;20021;-60
2022/05/01 12:16:28;;;;;;;209.88;129.38;;;31.80;96.00;;;;;;5056700;28;20071;-63
2022/05/01 12:18:56;;;;;;;248.23;151.30;;;31.80;96.50;;;;;;5074938;28;20021;-62
2022/05/01 12:21:30;;;;;;;250.50;133.13;;;31.70;96.70;;;;;;5060247;28;20405;-62
2022/05/01 12:24:02;;;;;;;241.18;114.28;;;31.70;96.70;;;;;;5063254;28;20527;-60
2022/05/01 12:26:31;;;;;;;418.20;234.93;;;31.60;96.60;;;;;;5075010;28;20039;-60
2022/05/01 12:28:59;;;;;;;189.35;132.13;;;31.50;96.80;;;;;;5072676;28;20025;-61
2022/05/01 12:31:26;;;;;;;67.20;33.28;;;31.50;97.20;;;;;;5074864;28;20024;-61
2022/05/01 12:33:53;;;;;;;138.93;87.60;;;31.50;97.20;;;;;;5070971;28;20131;-60
2022/05/01 12:36:25;;;;;;;66.40;39.80;;;31.40;97.30;;;;;;5069239;28;20020;-60
2022/05/01 12:38:55;;;;;;;;;;;31.40;97.50;;;;;;5081924;28;20034;-59
2022/05/01 12:44:00;;;;;;;37.90;23.48;;;31.50;97.50;;;;;;5073907;28;20020;-60
2022/05/01 12:46:31;;;;;;;28.75;17.60;;;31.50;97.60;;;;;;5069351;28;20021;-60
2022/05/01 12:48:59;;;;;;;38.95;22.23;;;31.40;97.70;;;;;;5053239;28;20033;-60
2022/05/01 12:51:41;;;;;;;42.28;22.05;;;31.40;97.90;;;;;;5053083;28;20115;-62
2022/05/01 12:54:09;;;;;;;36.17;19.00;;;31.30;97.70;;;;;;5067655;28;20053;-60
2022/05/01 12:56:36;;;;;;;33.83;22.13;;;31.30;97.40;;;;;;5072492;28;20032;-60
2022/05/01 12:59:27;;;;;;;74.20;55.15;;;31.30;97.40;;;;;;5072428;28;20032;-61
2022/05/01 13:01:58;;;;;;;46.17;28.98;;;31.30;97.20;;;;;;5053671;28;20039;-59
2022/05/01 13:04:26;;;;;;;52.92;31.92;;;31.20;97.00;;;;;;5072558;28;20138;-63
2022/05/01 13:06:54;;;;;;;77.13;44.53;;;31.10;97.50;;;;;;5070819;28;20071;-60
2022/05/01 13:09:22;;;;;;;262.02;218.77;;;31.10;97.60;;;;;;5072424;28;20028;-61
2022/05/01 13:12:06;;;;;;;56.55;40.88;;;31.10;98.10;;;;;;5072941;28;20101;-66
2022/05/01 13:14:33;;;;;;;39.38;26.13;;;31.10;97.90;;;;;;5057000;28;20025;-60
2022/05/01 13:17:20;;;;;;;29.52;19.45;;;31.00;98.00;;;;;;5071419;28;20381;-61
2022/05/01 13:19:47;;;;;;;34.83;19.40;;;30.90;98.40;;;;;;5066955;28;20024;-60
2022/05/01 13:22:14;;;;;;;27.13;15.68;;;30.90;98.30;;;;;;5071717;28;20028;-62